createdAt,value
2019-06-01T00:03:08.095Z,100047.64
2019-06-01T00:09:12.674Z,100045.52
2019-06-01T00:15:17.675Z,100048.14
2019-06-01T00:21:22.252Z,100043.59
2019-06-01T00:27:26.830Z,100044.95
2019-06-01T00:33:31.408Z,100042.05
2019-06-01T00:40:08.497Z,100040.33
2019-06-01T00:46:13.138Z,100047.49
2019-06-01T00:52:17.707Z,100042.51
2019-06-01T00:58:22.295Z,100045.02
2019-06-01T01:04:26.858Z,100041.70
2019-06-01T01:10:31.433Z,100041.35
2019-06-01T01:16:36.245Z,100045.41
2019-06-01T01:22:40.822Z,100048.58
2019-06-01T01:28:46.628Z,100044.75
2019-06-01T01:34:51.572Z,100047.36
2019-06-01T01:40:56.322Z,100039.69
2019-06-01T01:47:00.885Z,100035.68
2019-06-01T01:53:05.597Z,100039.51
2019-06-01T01:59:10.177Z,100041.81
2019-06-01T02:05:15.467Z,100038.97
2019-06-01T02:11:20.031Z,100045.42
2019-06-01T02:17:24.681Z,100041.08
2019-06-01T02:23:29.248Z,100039.71
2019-06-01T02:29:33.812Z,100040.84
2019-06-01T02:35:38.522Z,100043.79
2019-06-01T02:41:43.363Z,100042.50
2019-06-01T02:47:48.175Z,100039.97
2019-06-01T02:53:52.745Z,100046.65
2019-06-01T02:59:58.380Z,100039.38
2019-06-01T03:06:05.591Z,100049.91
2019-06-01T03:12:13.448Z,100049.00
2019-06-01T03:18:21.413Z,100047.37
2019-06-01T03:24:26.329Z,100047.89
2019-06-01T03:30:45.319Z,100047.13
2019-06-01T03:36:49.731Z,100036.98
2019-06-01T03:42:54.513Z,100038.48
2019-06-01T03:48:59.240Z,100035.56
2019-06-01T03:55:05.920Z,100041.38
2019-06-01T04:01:11.214Z,100046.02
2019-06-01T04:07:15.942Z,100050.30
2019-06-01T04:13:20.511Z,100056.91
2019-06-01T04:19:25.248Z,100057.52
2019-06-01T04:25:31.470Z,100055.87
2019-06-01T04:31:36.093Z,100058.77
2019-06-01T04:37:40.675Z,100052.84
2019-06-01T04:43:45.262Z,100056.86
2019-06-01T04:49:49.837Z,100062.68
2019-06-01T04:55:54.396Z,100065.98
2019-06-01T05:01:58.982Z,100067.48
2019-06-01T05:08:03.545Z,100064.91
2019-06-01T05:14:09.289Z,100065.52
2019-06-01T05:20:16.533Z,100075.70
2019-06-01T05:26:21.220Z,100077.90
2019-06-01T05:32:25.791Z,100069.86
2019-06-01T05:38:30.430Z,100080.98
2019-06-01T05:44:35.009Z,100073.60
2019-06-01T05:50:39.590Z,100059.63
2019-06-01T05:56:44.169Z,100067.16
2019-06-01T06:02:48.763Z,100074.55
2019-06-01T06:08:53.343Z,100069.31
2019-06-01T06:14:57.994Z,100067.58
2019-06-01T06:21:02.584Z,100057.13
2019-06-01T06:27:07.230Z,100056.73
2019-06-01T06:33:13.031Z,100046.48
2019-06-01T06:39:17.962Z,100059.02
2019-06-01T06:45:22.890Z,100058.01
2019-06-01T06:51:27.645Z,100057.44
2019-06-01T06:57:32.224Z,100055.95
2019-06-01T07:03:36.799Z,100061.66
2019-06-01T07:09:41.454Z,100060.13
2019-06-01T07:15:46.093Z,100060.78
2019-06-01T07:21:50.688Z,100050.41
2019-06-01T07:27:55.256Z,100057.56
2019-06-01T07:33:59.836Z,100063.27
2019-06-01T07:40:06.552Z,100052.06
2019-06-01T07:46:11.183Z,100052.90
2019-06-01T07:52:15.946Z,100053.05
2019-06-01T07:58:20.899Z,100048.08
2019-06-01T08:04:26.676Z,100047.73
2019-06-01T08:10:31.870Z,100051.81
2019-06-01T08:16:36.466Z,100048.08
2019-06-01T08:22:41.045Z,100052.97
2019-06-01T08:28:45.625Z,100044.47
2019-06-01T08:35:06.897Z,100037.98
2019-06-01T08:40:56.506Z,100027.80
2019-06-01T08:47:01.967Z,100026.65
2019-06-01T08:53:06.547Z,100027.60
2019-06-01T08:59:11.215Z,100024.83
2019-06-01T09:05:24.285Z,100022.29
2019-06-01T09:11:22.307Z,100018.66
2019-06-01T09:17:27.187Z,100014.47
2019-06-01T09:23:31.768Z,100007.28
2019-06-01T09:29:36.421Z,99999.05
2019-06-01T09:35:54.288Z,99992.73
2019-06-01T09:41:47.307Z,99983.80
2019-06-01T09:47:51.888Z,99982.34
2019-06-01T09:53:56.462Z,99982.97
2019-06-01T10:00:01.123Z,99986.48
2019-06-01T10:06:06.177Z,99979.39
2019-06-01T10:12:10.894Z,99978.34
2019-06-01T10:18:15.480Z,99981.42
2019-06-01T10:24:20.130Z,99973.87
2019-06-01T10:30:24.880Z,99978.51
2019-06-01T10:36:29.446Z,99971.36
2019-06-01T10:42:34.444Z,99975.34
2019-06-01T10:48:40.371Z,99971.04
2019-06-01T10:54:44.937Z,99970.58
2019-06-01T11:00:51.241Z,99968.72
2019-06-01T11:06:55.860Z,99963.61
2019-06-01T11:13:00.423Z,99965.06
2019-06-01T11:19:05.231Z,99950.77
2019-06-01T11:25:10.040Z,99950.83
2019-06-01T11:31:14.623Z,99943.13
2019-06-01T11:37:19.191Z,99942.53
2019-06-01T11:43:23.777Z,99941.30
2019-06-01T11:49:28.340Z,99936.33
2019-06-01T11:55:33.024Z,99926.22
2019-06-01T12:01:37.773Z,99908.53
2019-06-01T12:07:42.442Z,99903.75
2019-06-01T12:13:47.021Z,99902.22
2019-06-01T12:19:51.583Z,99908.09
2019-06-01T12:25:56.148Z,99906.77
2019-06-01T12:32:01.282Z,99895.34
2019-06-01T12:38:07.159Z,99893.81
2019-06-01T12:44:11.866Z,99885.50
2019-06-01T12:50:16.672Z,99881.77
2019-06-01T12:56:21.294Z,99875.31
2019-06-01T13:02:25.936Z,99872.50
2019-06-01T13:08:30.497Z,99858.02
2019-06-01T13:14:35.060Z,99854.82
2019-06-01T13:20:39.680Z,99846.92
2019-06-01T13:26:45.614Z,99843.38
2019-06-01T13:32:50.827Z,99829.63
2019-06-01T13:38:55.391Z,99824.13
2019-06-01T13:44:59.942Z,99811.37
2019-06-01T13:51:04.566Z,99808.25
2019-06-01T13:57:09.159Z,99813.93
2019-06-01T14:03:13.686Z,99803.25
2019-06-01T14:09:21.636Z,99803.01
2019-06-01T14:15:24.988Z,99800.40
2019-06-01T14:21:29.614Z,99795.24
2019-06-01T14:27:34.232Z,99795.02
2019-06-01T14:33:38.869Z,99796.34
2019-06-01T14:39:43.422Z,99790.55
2019-06-01T14:45:49.478Z,99783.18
2019-06-01T14:51:54.178Z,99774.21
2019-06-01T14:57:58.750Z,99768.11
2019-06-01T15:04:03.295Z,99772.45
2019-06-01T15:10:09.645Z,99767.88
2019-06-01T15:16:14.203Z,99758.06
2019-06-01T15:22:18.761Z,99754.80
2019-06-01T15:28:23.316Z,99747.72
2019-06-01T15:34:27.949Z,99739.67
2019-06-01T15:40:32.522Z,99743.84
2019-06-01T15:46:37.066Z,99730.02
2019-06-01T15:52:41.820Z,99732.55
2019-06-01T15:58:53.131Z,99730.20
2019-06-01T16:04:52.945Z,99729.62
2019-06-01T16:11:01.450Z,99723.20
2019-06-01T16:17:04.738Z,99718.25
2019-06-01T16:23:09.636Z,99720.81
2019-06-01T16:29:14.210Z,99723.44
2019-06-01T16:35:18.787Z,99728.13
2019-06-01T16:41:23.335Z,99723.93
2019-06-01T16:47:27.892Z,99718.30
2019-06-01T16:53:32.454Z,99720.67
2019-06-01T16:59:37.160Z,99716.58
2019-06-01T17:05:41.830Z,99711.52
2019-06-01T17:11:46.537Z,99708.86
2019-06-01T17:17:51.093Z,99716.64
2019-06-01T17:23:55.816Z,99713.16
2019-06-01T17:30:04.408Z,99705.46
2019-06-01T17:36:06.888Z,99707.28
2019-06-01T17:42:12.633Z,99706.66
2019-06-01T17:48:25.964Z,99707.09
2019-06-01T17:54:23.730Z,99700.77
2019-06-01T18:00:28.351Z,99693.73
2019-06-01T18:06:32.912Z,99695.75
2019-06-01T18:12:37.483Z,99691.81
2019-06-01T18:18:42.099Z,99699.91
2019-06-01T18:24:46.654Z,99687.44
2019-06-01T18:30:51.854Z,99691.58
2019-06-01T18:36:56.488Z,99690.27
2019-06-01T18:43:12.209Z,99690.63
2019-06-01T18:49:18.264Z,99691.74
2019-06-01T18:55:23.044Z,99694.86
2019-06-01T19:01:27.677Z,99698.64
2019-06-01T19:07:32.246Z,99695.63
2019-06-01T19:13:36.793Z,99697.52
2019-06-01T19:19:41.354Z,99697.16
2019-06-01T19:25:45.910Z,99697.09
2019-06-01T19:31:51.141Z,99702.91
2019-06-01T19:37:55.884Z,99703.00
2019-06-01T19:44:00.438Z,99710.96
2019-06-01T19:50:10.214Z,99711.30
2019-06-01T19:56:15.044Z,99716.60
2019-06-01T20:02:31.111Z,99712.16
2019-06-01T20:08:26.081Z,99708.88
2019-06-01T20:14:30.639Z,99714.51
2019-06-01T20:20:35.205Z,99718.57
2019-06-01T20:26:47.983Z,99710.81
2019-06-01T20:32:46.049Z,99710.33
2019-06-01T20:38:50.726Z,99719.77
2019-06-01T20:44:55.315Z,99715.77
2019-06-01T20:50:59.864Z,99719.66
2019-06-01T20:57:04.498Z,99713.05
2019-06-01T21:03:09.185Z,99723.38
2019-06-01T21:09:13.767Z,99716.14
2019-06-01T21:15:19.258Z,99715.59
2019-06-01T21:21:24.937Z,99713.29
2019-06-01T21:27:29.623Z,99713.08
2019-06-01T21:33:34.187Z,99715.41
2019-06-01T21:39:38.737Z,99717.20
2019-06-01T21:45:44.145Z,99718.64
2019-06-01T21:51:48.791Z,99717.48
2019-06-01T21:57:53.369Z,99720.55
2019-06-01T22:03:57.992Z,99717.45
2019-06-01T22:10:02.550Z,99718.77
2019-06-01T22:16:07.093Z,99711.25
2019-06-01T22:22:11.662Z,99713.49
2019-06-01T22:28:16.233Z,99707.11
2019-06-01T22:34:20.777Z,99709.14
2019-06-01T22:40:25.426Z,99708.52
2019-06-01T22:46:29.989Z,99700.31
2019-06-01T22:52:34.555Z,99701.47
2019-06-01T22:58:39.141Z,99699.06
2019-06-01T23:04:43.714Z,99694.42
2019-06-01T23:10:48.353Z,99699.89
2019-06-01T23:16:52.909Z,99690.25
2019-06-01T23:22:57.459Z,99695.34
2019-06-01T23:29:02.028Z,99685.97
2019-06-01T23:35:07.029Z,99682.77
2019-06-01T23:41:11.603Z,99682.82
2019-06-01T23:47:16.133Z,99682.78
2019-06-01T23:53:20.701Z,99690.45
2019-06-01T23:59:27.949Z,99679.86
